Time;durP1;ratioP1;P1;durP2;ratioP2;P2;SDS_P1;SDS_P2;PMS_P1;PMS_P2;Temp;Humidity;BMP_temperature;BMP_pressure;BME280_temperature;BME280_humidity;BME280_pressure;Samples;Min_cycle;Max_cycle;Signal;HPM_P1;HPM_P2
2023/04/10 00:02:43;;;;;;;23.97;14.07;;;6.20;99.90;;;;;;10280259;29;20211;-75
2023/04/10 00:08:14;;;;;;;26.67;13.63;;;6.10;99.90;;;;;;10279793;29;20307;-75
2023/04/10 00:13:35;;;;;;;20.67;10.97;;;6.00;99.90;;;;;;10280181;29;20200;-76
2023/04/10 00:18:56;;;;;;;17.67;9.60;;;6.10;99.90;;;;;;10268073;29;20200;-75
2023/04/10 00:24:17;;;;;;;12.33;8.10;;;6.10;99.90;;;;;;10275581;29;20215;-74
2023/04/10 00:29:39;;;;;;;14.20;8.33;;;6.00;99.90;;;;;;10279922;29;20223;-75
2023/04/10 00:35:00;;;;;;;25.13;14.87;;;5.90;99.90;;;;;;10263989;29;20231;-79
2023/04/10 00:40:22;;;;;;;27.50;19.03;;;6.00;99.90;;;;;;10280194;28;20200;-77
2023/04/10 00:45:43;;;;;;;44.93;27.97;;;6.00;99.90;;;;;;10293859;28;20222;-78
2023/04/10 00:51:05;;;;;;;72.43;44.50;;;6.00;99.90;;;;;;10263754;29;20207;-77
2023/04/10 00:56:28;;;;;;;126.53;78.13;;;6.00;99.90;;;;;;10291285;28;20196;-80
2023/04/10 01:01:51;;;;;;;48.93;29.97;;;5.80;99.90;;;;;;10276802;28;20238;-77
2023/04/10 01:07:49;;;;;;;26.53;18.27;;;5.70;99.90;;;;;;10277220;28;20424;-75
2023/04/10 01:13:45;;;;;;;34.60;21.87;;;5.60;99.90;;;;;;10276368;28;20205;-75
2023/04/10 01:19:48;;;;;;;18.03;13.30;;;5.50;99.90;;;;;;10262653;29;20204;-77
2023/04/10 01:25:32;;;;;;;32.73;19.83;;;5.50;99.90;;;;;;10275279;28;20260;-75
2023/04/10 01:30:58;;;;;;;16.33;11.33;;;5.40;99.90;;;;;;10237942;29;20203;-75
2023/04/10 01:36:27;;;;;;;37.93;24.40;;;5.40;99.90;;;;;;10223218;29;20252;-84
2023/04/10 01:41:51;;;;;;;39.27;23.43;;;5.40;99.90;;;;;;10273783;29;20207;-84
2023/04/10 01:47:18;;;;;;;20.60;12.70;;;5.50;99.90;;;;;;10289686;28;20268;-80
2023/04/10 01:52:40;;;;;;;16.67;10.10;;;5.50;99.90;;;;;;10276511;29;20261;-75
2023/04/10 01:58:12;;;;;;;15.17;9.13;;;5.50;99.90;;;;;;10290390;28;20207;-76
2023/04/10 02:03:34;;;;;;;21.57;13.73;;;5.50;99.90;;;;;;10291320;28;20515;-75
2023/04/10 02:09:24;;;;;;;25.90;15.20;;;5.40;99.90;;;;;;10274761;29;20223;-75
2023/04/10 02:14:47;;;;;;;88.83;48.43;;;5.40;99.90;;;;;;10257204;29;20201;-75
2023/04/10 02:20:10;;;;;;;51.70;27.67;;;5.20;99.90;;;;;;10275439;29;20192;-76
2023/04/10 02:25:32;;;;;;;24.43;13.57;;;5.20;99.90;;;;;;10280422;28;20316;-77
2023/04/10 02:30:53;;;;;;;32.63;18.03;;;5.10;99.90;;;;;;10260577;29;20512;-76
2023/04/10 02:36:14;;;;;;;42.37;24.50;;;5.00;99.90;;;;;;10274745;29;20569;-80
2023/04/10 02:41:35;;;;;;;29.67;16.50;;;5.00;99.90;;;;;;10286574;28;20258;-77
2023/04/10 02:46:57;;;;;;;16.77;9.57;;;5.10;99.90;;;;;;10272179;29;20231;-76
2023/04/10 02:52:18;;;;;;;88.00;43.17;;;5.10;99.90;;;;;;10287434;28;20194;-75
2023/04/10 02:57:41;;;;;;;82.47;44.73;;;5.10;99.90;;;;;;10273067;29;20216;-76
2023/04/10 03:03:03;;;;;;;80.17;42.10;;;5.10;99.90;;;;;;10273667;28;20500;-73
2023/04/10 03:08:33;;;;;;;43.43;25.50;;;5.10;99.90;;;;;;10286103;28;20594;-84
2023/04/10 03:13:54;;;;;;;50.27;28.40;;;5.00;99.90;;;;;;10256987;29;20462;-75
2023/04/10 03:19:15;;;;;;;94.67;43.60;;;5.00;99.90;;;;;;10272919;29;20521;-79
2023/04/10 03:24:37;;;;;;;95.90;45.37;;;4.90;99.90;;;;;;10273161;29;20214;-76
2023/04/10 03:29:58;;;;;;;141.13;63.47;;;4.90;99.90;;;;;;10273968;29;20202;-76
2023/04/10 03:35:20;;;;;;;202.50;88.83;;;4.90;99.90;;;;;;10289637;28;20289;-76
2023/04/10 03:40:41;;;;;;;68.87;32.43;;;4.80;99.90;;;;;;10280815;29;20383;-76
2023/04/10 03:46:04;;;;;;;25.23;14.63;;;4.80;99.90;;;;;;10281199;29;20221;-76
2023/04/10 03:51:28;;;;;;;63.17;29.70;;;4.80;99.90;;;;;;10292965;28;20233;-75
2023/04/10 03:56:49;;;;;;;50.97;26.83;;;4.90;99.90;;;;;;10247068;29;20205;-80
2023/04/10 04:02:12;;;;;;;117.83;50.40;;;4.80;99.90;;;;;;10265473;29;20230;-77
2023/04/10 04:07:35;;;;;;;298.63;121.03;;;4.80;99.90;;;;;;10294410;28;20386;-80
2023/04/10 04:13:15;;;;;;;79.83;36.47;;;4.70;99.90;;;;;;10280269;29;20290;-76
2023/04/10 04:18:57;;;;;;;29.10;15.63;;;4.80;99.90;;;;;;10281044;28;20279;-75
2023/04/10 04:24:43;;;;;;;32.40;17.67;;;4.80;99.90;;;;;;10250764;28;20208;-79
2023/04/10 04:30:11;;;;;;;27.20;16.07;;;4.80;99.90;;;;;;10225385;29;20226;-78
2023/04/10 04:35:40;;;;;;;18.87;11.50;;;4.90;99.90;;;;;;10238562;29;20242;-76
2023/04/10 04:41:31;;;;;;;16.43;11.57;;;4.80;99.90;;;;;;10273166;29;20230;-77
2023/04/10 04:47:15;;;;;;;37.70;18.20;;;4.90;99.90;;;;;;10279331;28;20234;-77
2023/04/10 04:53:09;;;;;;;32.00;16.27;;;5.00;99.90;;;;;;10177749;29;20439;-83
2023/04/10 04:58:53;;;;;;;16.83;9.80;;;5.10;99.90;;;;;;10179854;29;20216;-84
2023/04/10 05:04:27;;;;;;;14.27;7.83;;;5.00;99.90;;;;;;10182437;29;20279;-79
2023/04/10 05:09:57;;;;;;;11.53;7.63;;;5.20;99.90;;;;;;10141429;29;20303;-78
2023/04/10 05:15:41;;;;;;;15.03;8.70;;;5.30;99.90;;;;;;10169645;29;20546;-78
2023/04/10 05:21:30;;;;;;;9.80;7.37;;;5.30;99.90;;;;;;10175217;29;20212;-76
2023/04/10 05:27:27;;;;;;;11.90;7.27;;;5.40;99.90;;;;;;10176673;29;20438;-76
2023/04/10 05:33:11;;;;;;;13.17;7.70;;;5.70;99.90;;;;;;10170939;29;20214;-79
2023/04/10 05:38:52;;;;;;;21.30;11.97;;;5.90;99.90;;;;;;10177313;29;20523;-77
2023/04/10 05:44:33;;;;;;;37.13;19.30;;;6.00;99.90;;;;;;10210041;29;20521;-77
2023/04/10 05:50:14;;;;;;;16.37;9.10;;;6.20;99.90;;;;;;10194173;29;20203;-76
2023/04/10 05:55:44;;;;;;;50.73;19.37;;;6.40;99.90;;;;;;10179814;29;20462;-84
2023/04/10 06:01:39;;;;;;;81.30;35.20;;;6.50;99.90;;;;;;10241738;29;20304;-76
2023/04/10 06:07:02;;;;;;;45.17;20.27;;;6.70;99.90;;;;;;10285712;28;20283;-83
2023/04/10 06:12:25;;;;;;;26.13;14.60;;;7.00;99.90;;;;;;10242986;29;20201;-83
2023/04/10 06:17:46;;;;;;;14.13;8.53;;;7.10;99.90;;;;;;10258548;29;20211;-80
2023/04/10 06:23:08;;;;;;;14.13;8.87;;;7.30;99.90;;;;;;10271376;29;20473;-80
2023/04/10 06:28:29;;;;;;;16.23;9.67;;;7.90;98.40;;;;;;10258086;29;20243;-77
2023/04/10 06:33:54;;;;;;;23.60;13.27;;;9.20;92.70;;;;;;10271544;29;20217;-79
2023/04/10 06:39:16;;;;;;;49.50;31.30;;;10.80;59.70;;;;;;10260503;29;20276;-77
2023/04/10 06:44:37;;;;;;;25.07;16.50;;;12.10;37.00;;;;;;10275227;29;20225;-83
2023/04/10 06:49:58;;;;;;;18.70;8.43;;;13.00;28.30;;;;;;10270685;29;21685;-84
2023/04/10 06:55:20;;;;;;;13.93;8.88;;;13.70;22.50;;;;;;10265103;29;20387;-77
2023/04/10 07:00:41;;;;;;;8.77;4.30;;;14.40;18.40;;;;;;10276632;29;20208;-80
2023/04/10 07:06:02;;;;;;;6.05;3.70;;;15.10;16.60;;;;;;10288183;28;20245;-79
2023/04/10 07:11:23;;;;;;;8.82;3.70;;;15.80;12.70;;;;;;10268790;29;20231;-78
2023/04/10 07:16:44;;;;;;;23.13;13.52;;;16.30;11.90;;;;;;10295267;28;20252;-78
2023/04/10 07:22:06;;;;;;;65.70;37.47;;;16.80;9.70;;;;;;10268201;29;20200;-77
2023/04/10 07:27:27;;;;;;;6.38;4.43;;;17.60;7.30;;;;;;10281146;29;20234;-76
2023/04/10 07:32:48;;;;;;;11.38;7.00;;;17.90;6.00;;;;;;10264802;29;20501;-78
2023/04/10 07:38:10;;;;;;;10.48;6.57;;;18.60;3.40;;;;;;10281198;29;20234;-79
2023/04/10 07:43:32;;;;;;;3.80;3.10;;;18.80;2.10;;;;;;10280316;28;20187;-78
2023/04/10 07:48:54;;;;;;;4.28;2.40;;;19.40;20.00;;;;;;10286671;28;20269;-81
2023/04/10 07:54:15;;;;;;;6.82;3.88;;;19.30;11.20;;;;;;10280614;29;20203;-78
2023/04/10 07:59:36;;;;;;;7.10;4.88;;;19.80;9.70;;;;;;10281285;29;20203;-79
2023/04/10 08:04:57;;;;;;;8.00;4.28;;;19.90;1.00;;;;;;10241364;29;20192;-79
2023/04/10 08:10:19;;;;;;;4.65;2.67;;;20.50;1.00;;;;;;10272815;29;20264;-78
2023/04/10 08:15:40;;;;;;;3.05;2.30;;;20.80;1.00;;;;;;10281063;29;20400;-79
2023/04/10 08:21:01;;;;;;;3.88;2.17;;;21.10;1.00;;;;;;10261846;28;20278;-80
2023/04/10 08:26:24;;;;;;;3.97;2.92;;;21.60;14.80;;;;;;10292460;28;20291;-78
2023/04/10 08:31:45;;;;;;;3.92;2.45;;;21.90;1.00;;;;;;10279097;28;20195;-78
2023/04/10 08:37:08;;;;;;;2.35;2.10;;;22.30;1.00;;;;;;10291377;28;20249;-81
2023/04/10 08:42:30;;;;;;;6.63;3.03;;;22.60;1.00;;;;;;10279857;29;20191;-84
2023/04/10 08:47:57;;;;;;;4.57;2.78;;;22.90;1.00;;;;;;10279686;29;20440;-81
2023/04/10 08:53:21;;;;;;;3.08;2.75;;;23.50;1.00;;;;;;10278114;29;20242;-84
2023/04/10 08:58:43;;;;;;;4.93;3.35;;;23.70;1.00;;;;;;10278159;28;20199;-78
2023/04/10 09:04:04;;;;;;;6.07;2.55;;;23.40;1.00;;;;;;10278680;29;20302;-77
2023/04/10 09:09:26;;;;;;;5.07;1.92;;;23.10;1.00;;;;;;10277764;29;20270;-81
2023/04/10 09:14:52;;;;;;;4.10;2.20;;;23.50;1.00;;;;;;10290908;28;20198;-77
2023/04/10 09:20:21;;;;;;;3.90;2.28;;;23.80;1.00;;;;;;10292184;28;20218;-78
2023/04/10 09:25:42;;;;;;;2.90;2.10;;;23.90;1.00;;;;;;10253154;29;20220;-80
2023/04/10 09:31:28;;;;;;;5.88;2.38;;;24.40;1.00;;;;;;10237746;29;20415;-79
2023/04/10 09:36:57;;;;;;;2.92;2.28;;;24.60;1.00;;;;;;10253158;29;20234;-81
2023/04/10 09:42:34;;;;;;;6.30;2.90;;;24.80;1.00;;;;;;10277256;29;20250;-81
2023/04/10 09:48:07;;;;;;;3.65;2.53;;;25.00;1.00;;;;;;10277014;29;20253;-78
2023/04/10 09:53:28;;;;;;;3.83;2.65;;;24.70;1.10;;;;;;10258771;29;20207;-80
2023/04/10 09:58:51;;;;;;;2.95;2.50;;;24.30;1.70;;;;;;10276756;29;20252;-78
2023/04/10 10:04:16;;;;;;;3.78;2.42;;;25.00;2.10;;;;;;10259192;29;20234;-77
2023/04/10 10:09:37;;;;;;;3.70;2.50;;;24.90;2.70;;;;;;10286578;28;20583;-77
2023/04/10 10:15:18;;;;;;;2.30;1.80;;;25.30;2.90;;;;;;10276150;29;20199;-81
2023/04/10 10:20:44;;;;;;;3.60;2.40;;;25.00;2.50;;;;;;10275033;29;20242;-78
2023/04/10 10:26:05;;;;;;;3.28;2.70;;;25.40;2.90;;;;;;10275675;29;20226;-78
2023/04/10 10:31:31;;;;;;;3.42;2.17;;;25.20;1.00;;;;;;10275786;29;20251;-79
2023/04/10 10:36:52;;;;;;;6.38;2.65;;;25.40;1.00;;;;;;10288445;28;20559;-80
2023/04/10 10:42:40;;;;;;;3.17;2.10;;;25.00;1.00;;;;;;10250017;29;20210;-80
2023/04/10 10:48:01;;;;;;;2.22;1.90;;;25.00;1.00;;;;;;10275373;28;20247;-77
2023/04/10 10:53:32;;;;;;;1.92;1.50;;;25.20;4.10;;;;;;10274345;29;20485;-77
2023/04/10 10:58:58;;;;;;;3.70;2.10;;;25.30;1.00;;;;;;10274587;29;20207;-77
2023/04/10 11:04:45;;;;;;;2.00;1.73;;;25.80;1.00;;;;;;10256642;29;20286;-78
2023/04/10 11:10:07;;;;;;;3.25;2.50;;;25.60;1.00;;;;;;10218196;29;20254;-81
2023/04/10 11:15:28;;;;;;;2.42;1.98;;;25.40;1.00;;;;;;10247785;29;20199;-84
2023/04/10 11:21:11;;;;;;;4.47;2.13;;;25.70;1.00;;;;;;10250287;29;20556;-79
2023/04/10 11:26:38;;;;;;;2.70;2.08;;;26.00;1.00;;;;;;10272494;29;20221;-78
2023/04/10 11:32:03;;;;;;;3.10;1.73;;;25.60;1.00;;;;;;10259417;29;20270;-78
2023/04/10 11:37:24;;;;;;;2.25;1.60;;;25.40;1.00;;;;;;10273076;29;20457;-81
2023/04/10 11:42:46;;;;;;;4.45;2.53;;;25.40;1.00;;;;;;10273367;29;20203;-85
2023/04/10 11:48:08;;;;;;;3.45;1.83;;;25.40;1.00;;;;;;10274229;29;20195;-81
2023/04/10 11:53:29;;;;;;;3.65;1.83;;;25.00;1.00;;;;;;10273532;28;20210;-77
2023/04/10 11:58:52;;;;;;;1.95;1.70;;;25.10;1.00;;;;;;10263746;29;20237;-78
2023/04/10 12:04:18;;;;;;;2.90;1.90;;;24.90;1.00;;;;;;10280619;29;20199;-79
2023/04/10 12:09:39;;;;;;;4.25;1.83;;;24.50;1.00;;;;;;10278164;29;20214;-79
2023/04/10 12:15:01;;;;;;;5.00;1.98;;;24.40;1.00;;;;;;10280593;29;20187;-78
2023/04/10 12:20:25;;;;;;;3.30;2.08;;;24.10;1.00;;;;;;10294990;28;20234;-78
2023/04/10 12:25:46;;;;;;;2.92;2.10;;;24.10;1.00;;;;;;10280584;29;20188;-86
2023/04/10 12:31:08;;;;;;;4.28;2.10;;;24.30;1.00;;;;;;10280037;29;20197;-87
2023/04/10 12:36:31;;;;;;;4.20;2.00;;;24.20;1.00;;;;;;10281963;28;20242;-79
2023/04/10 12:41:52;;;;;;;5.88;2.28;;;23.70;1.00;;;;;;10264238;29;20201;-80
2023/04/10 12:47:13;;;;;;;4.35;2.35;;;23.70;1.00;;;;;;10278819;29;20190;-78
2023/04/10 12:52:35;;;;;;;2.08;1.70;;;23.60;1.00;;;;;;10278483;29;20205;-79
2023/04/10 12:57:57;;;;;;;6.68;2.05;;;23.20;1.00;;;;;;10278062;29;20402;-79
2023/04/10 13:03:18;;;;;;;2.67;2.10;;;23.10;1.00;;;;;;10261085;29;20199;-77
2023/04/10 13:08:39;;;;;;;8.73;3.50;;;23.00;1.00;;;;;;10278028;28;20230;-78
2023/04/10 13:14:01;;;;;;;3.85;2.90;;;23.00;1.00;;;;;;10279228;29;20429;-79
2023/04/10 13:19:21;;;;;;;2.88;1.98;;;22.90;1.00;;;;;;10278030;29;20277;-79
2023/04/10 13:24:42;;;;;;;5.30;3.42;;;22.60;2.50;;;;;;10277528;29;20246;-78
2023/04/10 13:30:04;;;;;;;2.92;2.05;;;;;;;;;;10278010;29;20225;-79
2023/04/10 13:35:25;;;;;;;2.35;1.92;;;22.20;19.50;;;;;;10276808;29;20425;-80
2023/04/10 13:40:46;;;;;;;3.35;2.25;;;21.60;15.20;;;;;;10276874;29;20301;-78
2023/04/10 13:46:07;;;;;;;5.38;2.47;;;;;;;;;;10276726;29;20191;-83
2023/04/10 13:51:31;;;;;;;3.88;2.30;;;21.30;19.60;;;;;;10275989;29;20199;-78
2023/04/10 13:56:56;;;;;;;8.00;4.05;;;21.30;20.40;;;;;;10259539;29;20299;-78
2023/04/10 14:02:17;;;;;;;4.38;3.10;;;21.20;18.80;;;;;;10276052;29;20262;-79
2023/04/10 14:07:38;;;;;;;2.35;2.00;;;21.10;15.20;;;;;;10287883;28;20398;-85
2023/04/10 14:12:59;;;;;;;8.50;3.83;;;21.00;12.20;;;;;;10275885;29;20202;-80
2023/04/10 14:18:20;;;;;;;5.18;2.80;;;20.70;15.70;;;;;;10257967;28;20541;-80
2023/04/10 14:23:42;;;;;;;3.17;2.25;;;20.20;15.50;;;;;;10274337;28;20223;-82
2023/04/10 14:29:03;;;;;;;6.20;2.70;;;20.00;11.80;;;;;;10275482;29;20202;-77
2023/04/10 14:34:24;;;;;;;3.88;1.98;;;19.90;13.40;;;;;;10274001;29;20587;-77
2023/04/10 14:39:45;;;;;;;7.03;2.55;;;19.70;16.40;;;;;;10274882;29;20268;-81
2023/04/10 14:45:06;;;;;;;5.57;2.00;;;19.50;14.90;;;;;;10274235;29;20215;-78
2023/04/10 14:50:30;;;;;;;5.72;3.05;;;19.40;1.00;;;;;;10274288;29;20203;-84
2023/04/10 14:55:51;;;;;;;5.00;2.65;;;19.20;1.60;;;;;;10274808;29;20206;-79
2023/04/10 15:01:12;;;;;;;3.85;2.72;;;19.20;1.50;;;;;;10273347;29;20227;-80
2023/04/10 15:06:33;;;;;;;5.40;2.65;;;19.10;1.70;;;;;;10257499;29;20302;-78
2023/04/10 15:11:55;;;;;;;5.88;2.80;;;18.80;2.20;;;;;;10274245;29;20385;-81
2023/04/10 15:17:16;;;;;;;3.45;2.60;;;18.70;2.50;;;;;;10256735;29;20286;-77
2023/04/10 15:22:37;;;;;;;4.55;2.40;;;18.60;2.60;;;;;;10274466;29;20187;-78
2023/04/10 15:27:58;;;;;;;10.00;3.10;;;18.50;2.80;;;;;;10273139;28;20282;-77
2023/04/10 15:33:20;;;;;;;6.13;2.80;;;18.50;3.30;;;;;;10264114;29;20214;-78
2023/04/10 15:38:42;;;;;;;6.43;2.95;;;18.40;3.40;;;;;;10294304;28;20277;-80
2023/04/10 15:44:03;;;;;;;2.70;2.33;;;18.10;4.10;;;;;;10281888;29;20218;-78
2023/04/10 15:49:24;;;;;;;7.05;2.88;;;17.90;12.00;;;;;;10281326;29;20214;-80
2023/04/10 15:54:51;;;;;;;4.47;3.35;;;17.60;17.20;;;;;;10263975;29;20199;-77
2023/04/10 16:00:13;;;;;;;5.32;3.15;;;17.40;6.60;;;;;;10265815;29;20307;-80
2023/04/10 16:05:44;;;;;;;8.02;4.50;;;17.20;6.30;;;;;;10295610;28;20395;-78
2023/04/10 16:11:05;;;;;;;9.68;4.28;;;17.10;7.00;;;;;;10280588;29;20199;-80
2023/04/10 16:16:27;;;;;;;11.48;4.28;;;17.00;7.50;;;;;;10281442;28;20237;-77
2023/04/10 16:21:49;;;;;;;12.07;4.00;;;16.90;7.70;;;;;;10280387;29;20489;-80
2023/04/10 16:27:16;;;;;;;8.75;5.05;;;16.80;8.40;;;;;;10280263;29;20418;-78
2023/04/10 16:32:37;;;;;;;6.65;4.28;;;16.60;8.80;;;;;;10261768;29;20244;-77
2023/04/10 16:37:58;;;;;;;8.40;4.43;;;16.50;9.00;;;;;;10273380;29;20429;-81
2023/04/10 16:43:19;;;;;;;9.35;3.70;;;16.50;9.70;;;;;;10252265;28;20193;-79
2023/04/10 16:48:40;;;;;;;8.05;4.85;;;16.40;10.10;;;;;;10279275;29;20275;-78
2023/04/10 16:54:02;;;;;;;8.18;4.28;;;16.40;10.50;;;;;;10279123;29;20201;-78
2023/04/10 16:59:23;;;;;;;9.10;4.90;;;16.30;10.90;;;;;;10279493;28;20247;-77
2023/04/10 17:04:44;;;;;;;9.38;4.50;;;16.30;11.50;;;;;;10292354;28;20454;-77
2023/04/10 17:10:06;;;;;;;8.48;5.53;;;16.20;11.90;;;;;;10295899;28;20382;-77
2023/04/10 17:15:28;;;;;;;7.55;4.65;;;16.10;12.30;;;;;;10298876;28;20208;-77
2023/04/10 17:20:49;;;;;;;13.32;7.40;;;16.00;12.80;;;;;;10312906;28;20221;-77
2023/04/10 17:26:14;;;;;;;17.30;8.70;;;15.90;12.60;;;;;;10325000;28;20194;-84
2023/04/10 17:31:36;;;;;;;29.20;15.80;;;15.70;12.80;;;;;;10290975;28;20205;-80
2023/04/10 17:36:57;;;;;;;26.63;12.30;;;15.60;13.00;;;;;;10315980;28;20257;-84
2023/04/10 17:42:18;;;;;;;15.32;9.27;;;15.40;13.50;;;;;;10228006;29;20204;-77
2023/04/10 17:47:39;;;;;;;18.05;9.98;;;15.20;14.30;;;;;;10279214;28;20200;-78
2023/04/10 17:53:00;;;;;;;19.60;10.20;;;15.00;15.30;;;;;;10276768;28;20511;-79
2023/04/10 17:58:22;;;;;;;17.48;9.95;;;14.80;16.60;;;;;;10279345;29;20304;-81
2023/04/10 18:03:43;;;;;;;18.38;9.00;;;14.60;18.30;;;;;;10286756;28;20201;-78
2023/04/10 18:09:04;;;;;;;14.13;7.90;;;14.40;20.60;;;;;;10276635;28;20200;-78
2023/04/10 18:14:25;;;;;;;14.73;8.32;;;14.10;24.30;;;;;;10310288;28;20212;-77
2023/04/10 18:19:46;;;;;;;10.95;6.90;;;14.00;27.10;;;;;;10272625;28;20227;-78
2023/04/10 18:25:07;;;;;;;19.38;8.30;;;13.80;30.80;;;;;;10315858;28;20392;-76
2023/04/10 18:30:29;;;;;;;16.08;8.85;;;13.60;36.00;;;;;;10310396;28;20192;-77
2023/04/10 18:35:51;;;;;;;14.20;9.73;;;13.50;39.50;;;;;;10258323;28;20296;-77
2023/04/10 18:41:12;;;;;;;16.70;9.10;;;13.40;42.70;;;;;;10281580;28;20224;-78
2023/04/10 18:46:34;;;;;;;13.70;8.40;;;13.30;43.90;;;;;;10286748;28;20207;-79
2023/04/10 18:51:55;;;;;;;14.00;9.07;;;13.20;46.30;;;;;;10260699;29;20211;-77
2023/04/10 18:57:16;;;;;;;18.73;10.60;;;13.10;50.00;;;;;;10260526;29;20227;-77
2023/04/10 19:02:37;;;;;;;14.98;9.77;;;12.90;52.80;;;;;;10294462;28;20212;-78
2023/04/10 19:07:59;;;;;;;31.13;17.55;;;12.90;54.20;;;;;;10274823;29;20240;-79
2023/04/10 19:13:23;;;;;;;18.88;10.10;;;12.80;54.20;;;;;;10257354;29;20204;-78
2023/04/10 19:18:47;;;;;;;20.10;11.10;;;12.60;56.60;;;;;;10284592;28;20238;-77
2023/04/10 19:24:09;;;;;;;17.77;11.60;;;12.50;59.70;;;;;;10274168;29;20221;-77
2023/04/10 19:29:30;;;;;;;17.13;10.73;;;12.40;58.70;;;;;;10274036;29;20198;-78
2023/04/10 19:34:52;;;;;;;19.75;9.65;;;12.10;62.70;;;;;;10272329;29;20237;-77
2023/04/10 19:40:13;;;;;;;15.70;7.83;;;11.90;63.40;;;;;;10288821;28;20241;-77
2023/04/10 19:45:38;;;;;;;16.67;9.88;;;11.60;74.20;;;;;;10273851;29;20197;-78
2023/04/10 19:51:05;;;;;;;19.93;10.13;;;11.50;75.10;;;;;;10273323;29;20232;-79
2023/04/10 19:56:27;;;;;;;18.10;10.53;;;11.40;75.90;;;;;;10256500;29;20216;-78
2023/04/10 20:01:48;;;;;;;21.93;10.37;;;11.40;75.70;;;;;;10255543;28;20308;-84
2023/04/10 20:07:09;;;;;;;19.83;9.80;;;11.30;77.90;;;;;;10269809;29;20212;-80
2023/04/10 20:12:34;;;;;;;13.20;8.43;;;11.10;78.60;;;;;;10285098;28;20443;-79
2023/04/10 20:17:54;;;;;;;17.67;8.73;;;11.00;81.30;;;;;;10259526;29;20317;-77
2023/04/10 20:23:16;;;;;;;15.53;8.70;;;11.10;77.90;;;;;;10292189;28;20209;-78
2023/04/10 20:28:37;;;;;;;16.97;9.83;;;11.00;78.80;;;;;;10279274;28;20430;-77
2023/04/10 20:33:58;;;;;;;13.97;8.67;;;10.90;80.60;;;;;;10294686;28;20205;-77
2023/04/10 20:39:19;;;;;;;14.73;9.03;;;10.90;82.50;;;;;;10271673;29;20320;-77
2023/04/10 20:44:40;;;;;;;13.50;8.43;;;10.80;83.30;;;;;;10279495;29;20580;-77
2023/04/10 20:50:01;;;;;;;15.60;9.03;;;10.80;82.40;;;;;;10278516;29;20208;-76
2023/04/10 20:55:22;;;;;;;18.13;9.27;;;10.70;86.80;;;;;;10279255;29;20476;-77
2023/04/10 21:00:43;;;;;;;18.87;9.03;;;10.60;86.80;;;;;;10290910;28;20232;-79
2023/04/10 21:06:06;;;;;;;15.60;9.27;;;10.50;85.80;;;;;;10276975;29;20450;-76
2023/04/10 21:11:27;;;;;;;18.70;9.63;;;10.40;88.50;;;;;;10278734;29;20278;-81
2023/04/10 21:16:48;;;;;;;17.20;10.00;;;10.30;88.70;;;;;;10281057;29;20492;-78
2023/04/10 21:22:09;;;;;;;16.50;10.07;;;10.20;90.40;;;;;;10263287;29;20235;-80
2023/04/10 21:27:30;;;;;;;18.80;9.63;;;10.00;91.60;;;;;;10276668;28;20190;-76
2023/04/10 21:32:51;;;;;;;16.43;10.37;;;10.00;91.30;;;;;;10277563;29;20193;-78
2023/04/10 21:38:12;;;;;;;16.83;10.50;;;9.90;92.10;;;;;;10258896;29;20325;-78
2023/04/10 21:43:34;;;;;;;17.43;9.93;;;10.00;93.70;;;;;;10277227;29;20199;-76
2023/04/10 21:48:55;;;;;;;16.47;9.93;;;9.90;94.00;;;;;;10275581;29;20204;-76
2023/04/10 21:54:16;;;;;;;17.00;9.67;;;9.80;93.40;;;;;;10271968;29;20271;-80
2023/04/10 21:59:37;;;;;;;18.07;10.23;;;9.60;93.60;;;;;;10276400;29;20226;-77
2023/04/10 22:04:58;;;;;;;16.57;9.47;;;9.60;94.00;;;;;;10275868;29;20205;-78
2023/04/10 22:10:19;;;;;;;13.57;8.90;;;9.50;94.70;;;;;;10276097;29;20201;-76
2023/04/10 22:15:40;;;;;;;17.83;8.50;;;9.40;95.40;;;;;;10275271;28;20193;-76
2023/04/10 22:21:01;;;;;;;19.53;9.13;;;9.50;95.40;;;;;;10271174;28;20230;-76
2023/04/10 22:26:23;;;;;;;11.67;8.20;;;9.50;95.50;;;;;;10275548;29;20191;-76
2023/04/10 22:31:44;;;;;;;11.90;8.77;;;9.50;94.90;;;;;;10275490;29;20506;-78
2023/04/10 22:37:05;;;;;;;13.90;8.60;;;9.40;95.90;;;;;;10274354;29;20243;-77
2023/04/10 22:42:27;;;;;;;15.43;9.43;;;9.30;96.20;;;;;;10274499;29;20467;-76
2023/04/10 22:47:49;;;;;;;16.80;9.10;;;9.40;96.90;;;;;;10258098;29;20208;-77
2023/04/10 22:53:10;;;;;;;17.77;10.17;;;9.40;96.50;;;;;;10274527;29;20208;-76
2023/04/10 22:58:31;;;;;;;13.83;8.97;;;9.40;96.40;;;;;;10274874;29;20229;-76
2023/04/10 23:03:52;;;;;;;17.77;9.10;;;9.40;96.30;;;;;;10273790;29;20284;-77
2023/04/10 23:09:13;;;;;;;16.10;8.77;;;9.40;96.60;;;;;;10260117;29;20198;-77
2023/04/10 23:14:34;;;;;;;14.63;8.00;;;9.40;97.00;;;;;;10274663;29;20251;-77
2023/04/10 23:19:55;;;;;;;15.00;8.70;;;9.40;97.60;;;;;;10286011;28;20525;-77
2023/04/10 23:25:16;;;;;;;13.13;8.57;;;9.40;97.60;;;;;;10315248;28;20274;-76
2023/04/10 23:30:38;;;;;;;11.90;7.80;;;9.40;97.70;;;;;;10331369;28;20227;-78
2023/04/10 23:35:59;;;;;;;11.47;8.30;;;9.40;97.40;;;;;;10292643;28;20260;-77
2023/04/10 23:41:21;;;;;;;15.83;8.77;;;9.40;97.80;;;;;;10269626;29;20230;-77
2023/04/10 23:46:42;;;;;;;14.50;8.50;;;9.30;98.50;;;;;;10283565;29;20212;-80
2023/04/10 23:52:03;;;;;;;12.73;7.90;;;9.30;98.60;;;;;;10284715;28;20226;-80
2023/04/10 23:57:24;;;;;;;12.73;6.90;;;9.30;99.00;;;;;;10285803;28;20282;-76
